createdAt,value
2017-11-07T00:01:17.839Z,8.70
2017-11-07T00:03:46.948Z,8.15
2017-11-07T00:06:21.720Z,7.85
2017-11-07T00:08:50.814Z,7.80
2017-11-07T00:11:19.887Z,8.43
2017-11-07T00:13:49.089Z,7.65
2017-11-07T00:16:18.948Z,7.87
2017-11-07T00:18:48.129Z,6.57
2017-11-07T00:21:18.019Z,6.40
2017-11-07T00:23:47.162Z,7.37
2017-11-07T00:26:17.934Z,6.00
2017-11-07T00:28:47.339Z,7.20
2017-11-07T00:31:16.423Z,7.53
2017-11-07T00:33:45.504Z,7.32
2017-11-07T00:36:14.635Z,7.45
2017-11-07T00:38:43.708Z,7.07
2017-11-07T00:41:14.499Z,6.85
2017-11-07T00:43:44.782Z,6.87
2017-11-07T00:46:13.867Z,6.45
2017-11-07T00:48:43.015Z,6.15
2017-11-07T00:51:12.443Z,6.45
2017-11-07T00:53:41.581Z,6.65
2017-11-07T00:56:11.480Z,5.82
2017-11-07T00:58:40.735Z,4.68
2017-11-07T01:01:09.924Z,5.15
2017-11-07T01:03:39.986Z,5.82
2017-11-07T01:06:09.337Z,4.60
2017-11-07T01:08:38.723Z,5.00
2017-11-07T01:11:08.013Z,4.95
2017-11-07T01:13:38.443Z,5.07
2017-11-07T01:16:07.755Z,5.07
2017-11-07T01:18:36.976Z,5.32
2017-11-07T01:21:06.785Z,5.18
2017-11-07T01:23:36.054Z,6.55
2017-11-07T01:26:05.252Z,5.90
2017-11-07T01:28:35.781Z,5.93
2017-11-07T01:31:05.189Z,6.22
2017-11-07T01:33:34.566Z,6.60
2017-11-07T01:36:05.355Z,6.43
2017-11-07T01:38:34.756Z,6.40
2017-11-07T01:41:05.358Z,8.70
2017-11-07T01:43:36.104Z,7.40
2017-11-07T01:46:05.403Z,7.22
2017-11-07T01:48:34.588Z,6.10
2017-11-07T01:51:03.913Z,9.05
2017-11-07T01:53:34.094Z,9.18
2017-11-07T01:56:03.325Z,8.68
2017-11-07T01:58:33.026Z,8.50
2017-11-07T02:01:02.424Z,9.50
2017-11-07T02:03:31.788Z,10.02
2017-11-07T02:06:01.323Z,9.30
2017-11-07T02:08:30.833Z,9.45
2017-11-07T02:11:00.725Z,9.77
2017-11-07T02:13:30.276Z,10.18
2017-11-07T02:15:59.566Z,11.55
2017-11-07T02:18:29.393Z,15.23
2017-11-07T02:20:59.896Z,14.65
2017-11-07T02:23:29.082Z,15.95
2017-11-07T02:25:58.228Z,12.70
2017-11-07T02:28:27.397Z,14.63
2017-11-07T02:30:56.511Z,16.92
2017-11-07T02:33:26.538Z,14.77
2017-11-07T02:35:56.491Z,16.70
2017-11-07T02:38:25.618Z,15.95
2017-11-07T02:40:54.727Z,15.05
2017-11-07T02:43:24.646Z,14.90
2017-11-07T02:45:53.789Z,16.10
2017-11-07T02:48:23.748Z,14.63
2017-11-07T02:50:53.166Z,13.20
2017-11-07T02:53:22.283Z,13.25
2017-11-07T02:55:51.360Z,12.15
2017-11-07T02:58:21.239Z,13.07
2017-11-07T03:00:50.340Z,12.25
2017-11-07T03:03:19.438Z,13.62
2017-11-07T03:05:50.103Z,15.45
2017-11-07T03:08:19.211Z,16.37
2017-11-07T03:10:48.327Z,17.52
2017-11-07T03:13:18.682Z,15.38
2017-11-07T03:15:47.855Z,15.13
2017-11-07T03:18:16.950Z,15.77
2017-11-07T03:20:46.577Z,14.52
2017-11-07T03:23:15.697Z,15.93
2017-11-07T03:25:44.791Z,16.17
2017-11-07T03:28:13.947Z,18.08
2017-11-07T03:30:43.795Z,17.85
2017-11-07T03:33:12.995Z,17.87
2017-11-07T03:35:42.655Z,17.92
2017-11-07T03:38:11.755Z,18.80
2017-11-07T03:40:41.979Z,18.17
2017-11-07T03:43:11.192Z,17.65
2017-11-07T03:45:40.316Z,19.15
2017-11-07T03:48:09.620Z,20.12
2017-11-07T03:50:39.279Z,19.20
2017-11-07T03:53:08.552Z,18.50
2017-11-07T03:55:37.730Z,18.73
2017-11-07T03:58:07.126Z,22.35
2017-11-07T04:00:37.102Z,21.23
2017-11-07T04:03:06.378Z,20.95
2017-11-07T04:05:35.563Z,19.55
2017-11-07T04:08:04.916Z,24.00
2017-11-07T04:10:34.102Z,25.45
2017-11-07T04:13:03.559Z,22.35
2017-11-07T04:15:32.826Z,23.45
2017-11-07T04:18:02.058Z,22.62
2017-11-07T04:20:31.499Z,20.02
2017-11-07T04:23:00.644Z,19.20
2017-11-07T04:25:31.045Z,19.45
2017-11-07T04:28:00.358Z,20.65
2017-11-07T04:30:30.903Z,19.83
2017-11-07T04:33:00.077Z,19.48
2017-11-07T04:35:29.552Z,19.50
2017-11-07T04:37:58.751Z,18.83
2017-11-07T04:40:28.067Z,19.80
2017-11-07T04:42:58.782Z,19.87
2017-11-07T04:45:27.898Z,20.45
2017-11-07T04:47:58.871Z,20.10
2017-11-07T04:50:28.473Z,19.62
2017-11-07T04:52:57.575Z,17.67
2017-11-07T04:55:27.589Z,18.87
2017-11-07T04:57:56.794Z,19.27
2017-11-07T05:00:26.004Z,18.27
2017-11-07T05:02:55.130Z,20.60
2017-11-07T05:05:25.946Z,19.70
2017-11-07T05:07:55.050Z,20.90
2017-11-07T05:10:24.218Z,20.40
2017-11-07T05:12:53.411Z,20.35
2017-11-07T05:15:23.542Z,20.52
2017-11-07T05:17:52.766Z,20.05
2017-11-07T05:20:24.369Z,19.05
2017-11-07T05:22:53.665Z,20.65
2017-11-07T05:25:22.759Z,18.65
2017-11-07T05:27:51.976Z,17.00
2017-11-07T05:30:21.847Z,18.80
2017-11-07T05:32:51.041Z,16.98
2017-11-07T05:35:20.225Z,18.05
2017-11-07T05:37:49.347Z,16.08
2017-11-07T05:40:18.515Z,16.90
2017-11-07T05:42:47.947Z,19.85
2017-11-07T05:45:17.171Z,19.10
2017-11-07T05:47:46.379Z,17.37
2017-11-07T05:50:16.713Z,19.12
2017-11-07T05:52:46.915Z,28.42
2017-11-07T05:55:16.844Z,23.60
2017-11-07T05:57:47.370Z,21.65
2017-11-07T06:00:16.587Z,19.70
2017-11-07T06:02:45.703Z,18.48
2017-11-07T06:05:14.977Z,19.40
2017-11-07T06:07:44.066Z,19.02
2017-11-07T06:10:13.225Z,19.67
2017-11-07T06:12:42.514Z,18.85
2017-11-07T06:15:11.668Z,16.12
2017-11-07T06:17:41.780Z,15.48
2017-11-07T06:20:11.198Z,16.15
2017-11-07T06:22:40.434Z,16.67
2017-11-07T06:25:09.714Z,17.12
2017-11-07T06:27:39.222Z,16.85
2017-11-07T06:30:09.707Z,17.73
2017-11-07T06:32:39.044Z,17.02
2017-11-07T06:35:08.880Z,16.23
2017-11-07T06:37:38.517Z,17.75
2017-11-07T06:40:07.871Z,17.65
2017-11-07T06:42:38.310Z,16.67
2017-11-07T06:45:08.387Z,19.80
2017-11-07T06:47:37.975Z,19.48
2017-11-07T06:50:08.230Z,19.77
2017-11-07T06:52:37.469Z,18.92
2017-11-07T06:55:06.936Z,17.00
2017-11-07T06:57:38.444Z,16.10
2017-11-07T07:00:08.366Z,18.30
2017-11-07T07:02:38.459Z,17.50
2017-11-07T07:05:09.352Z,17.90
2017-11-07T07:07:38.753Z,15.50
2017-11-07T07:10:08.449Z,14.80
2017-11-07T07:12:38.195Z,14.32
2017-11-07T07:15:07.449Z,13.82
2017-11-07T07:17:36.869Z,12.40
2017-11-07T07:20:07.478Z,12.25
2017-11-07T07:22:37.005Z,13.45
2017-11-07T07:25:06.428Z,11.90
2017-11-07T07:27:36.076Z,14.13
2017-11-07T07:30:05.444Z,12.60
2017-11-07T07:32:34.981Z,13.70
2017-11-07T07:35:04.969Z,14.70
2017-11-07T07:37:34.322Z,18.70
2017-11-07T07:40:03.713Z,17.25
2017-11-07T07:42:33.922Z,15.50
2017-11-07T07:45:04.146Z,16.75
2017-11-07T07:47:33.414Z,16.62
2017-11-07T07:50:03.607Z,17.42
2017-11-07T07:52:33.434Z,15.25
2017-11-07T07:55:03.363Z,14.90
2017-11-07T07:57:33.009Z,15.60
2017-11-07T08:00:03.307Z,15.68
2017-11-07T08:02:32.593Z,15.40
2017-11-07T08:05:02.322Z,15.93
2017-11-07T08:07:31.781Z,15.63
2017-11-07T08:10:01.101Z,13.43
2017-11-07T08:12:32.285Z,14.20
2017-11-07T08:15:01.690Z,13.30
2017-11-07T08:17:30.954Z,13.48
2017-11-07T08:20:01.661Z,12.57
2017-11-07T08:22:30.945Z,12.15
2017-11-07T08:25:00.268Z,14.43
2017-11-07T08:27:29.588Z,13.20
2017-11-07T08:29:58.703Z,13.10
2017-11-07T08:32:28.002Z,12.13
2017-11-07T08:34:58.232Z,12.07
2017-11-07T08:37:27.447Z,10.48
2017-11-07T08:39:57.424Z,10.63
2017-11-07T08:42:27.063Z,11.45
2017-11-07T08:44:56.155Z,11.20
2017-11-07T08:47:25.370Z,12.20
2017-11-07T08:49:55.436Z,15.60
2017-11-07T08:52:25.330Z,14.93
2017-11-07T08:54:54.437Z,9.73
2017-11-07T08:57:23.641Z,10.20
2017-11-07T08:59:52.769Z,8.82
2017-11-07T09:02:21.868Z,8.82
2017-11-07T09:04:51.275Z,10.55
2017-11-07T09:07:21.024Z,10.07
2017-11-07T09:09:50.172Z,8.53
2017-11-07T09:12:20.283Z,7.97
2017-11-07T09:14:49.429Z,7.60
2017-11-07T09:17:19.521Z,6.87
2017-11-07T09:19:51.915Z,7.03
2017-11-07T09:22:21.846Z,7.50
2017-11-07T09:24:51.772Z,8.47
2017-11-07T09:27:22.143Z,8.30
2017-11-07T09:29:51.248Z,8.60
2017-11-07T09:32:20.439Z,9.43
2017-11-07T09:34:50.713Z,8.50
2017-11-07T09:37:20.236Z,8.80
2017-11-07T09:39:49.393Z,8.20
2017-11-07T09:42:19.413Z,9.90
2017-11-07T09:44:48.547Z,7.97
2017-11-07T09:47:17.642Z,6.93
2017-11-07T09:49:47.192Z,6.97
2017-11-07T09:52:16.376Z,6.40
2017-11-07T09:54:45.510Z,6.97
2017-11-07T09:57:14.647Z,6.90
2017-11-07T09:59:43.899Z,8.27
2017-11-07T10:02:13.846Z,6.90
2017-11-07T10:04:43.117Z,7.30
2017-11-07T10:07:12.446Z,7.60
2017-11-07T10:09:42.468Z,7.90
2017-11-07T10:12:12.411Z,8.67
2017-11-07T10:14:41.663Z,8.43
2017-11-07T10:17:10.903Z,8.27
2017-11-07T10:19:40.336Z,5.93
2017-11-07T10:22:09.649Z,6.53
2017-11-07T10:24:38.858Z,8.17
2017-11-07T10:27:08.222Z,7.83
2017-11-07T10:29:37.643Z,7.90
2017-11-07T10:32:06.912Z,8.73
2017-11-07T10:34:37.715Z,8.20
2017-11-07T10:37:07.132Z,8.65
2017-11-07T10:39:36.376Z,9.13
2017-11-07T10:42:05.835Z,9.15
2017-11-07T10:44:36.463Z,8.25
2017-11-07T10:47:05.765Z,7.70
2017-11-07T10:49:36.025Z,7.65
2017-11-07T10:52:06.189Z,9.25
2017-11-07T10:54:36.732Z,7.65
2017-11-07T10:57:05.958Z,7.18
2017-11-07T10:59:35.242Z,7.07
2017-11-07T11:02:05.098Z,7.30
2017-11-07T11:04:34.400Z,6.80
2017-11-07T11:07:03.642Z,6.68
2017-11-07T11:09:34.136Z,7.30
2017-11-07T11:12:03.464Z,7.70
2017-11-07T11:14:32.693Z,7.90
2017-11-07T11:17:02.183Z,6.97
2017-11-07T11:19:32.538Z,8.25
2017-11-07T11:22:01.959Z,5.85
2017-11-07T11:24:33.089Z,6.65
2017-11-07T11:27:02.452Z,6.57
2017-11-07T11:29:31.811Z,6.57
2017-11-07T11:32:01.365Z,6.50
2017-11-07T11:34:31.375Z,6.50
2017-11-07T11:37:00.878Z,7.05
2017-11-07T11:39:31.373Z,8.35
2017-11-07T11:42:00.599Z,9.13
2017-11-07T11:44:30.463Z,8.82
2017-11-07T11:47:00.988Z,7.75
2017-11-07T11:49:35.879Z,6.85
2017-11-07T11:52:06.427Z,7.47
2017-11-07T11:54:36.983Z,6.72
2017-11-07T11:57:11.875Z,6.90
2017-11-07T11:59:41.935Z,7.07
2017-11-07T12:02:12.521Z,6.93
2017-11-07T12:04:42.791Z,5.95
2017-11-07T12:07:12.114Z,6.07
2017-11-07T12:09:43.353Z,6.00
2017-11-07T12:12:13.689Z,5.70
2017-11-07T12:14:42.938Z,5.05
2017-11-07T12:17:12.629Z,3.97
2017-11-07T12:19:42.094Z,4.18
2017-11-07T12:22:11.439Z,3.00
2017-11-07T12:24:40.782Z,3.20
2017-11-07T12:27:10.190Z,3.12
2017-11-07T12:29:39.589Z,4.15
2017-11-07T12:32:10.481Z,3.45
2017-11-07T12:34:39.883Z,2.78
2017-11-07T12:37:10.727Z,3.70
2017-11-07T12:39:44.944Z,3.17
2017-11-07T12:42:15.195Z,2.62
2017-11-07T12:44:44.394Z,2.80
2017-11-07T12:47:14.319Z,2.00
2017-11-07T12:49:44.320Z,3.65
2017-11-07T12:52:13.422Z,2.80
2017-11-07T12:54:43.106Z,3.00
2017-11-07T12:57:12.400Z,2.90
2017-11-07T12:59:42.423Z,3.30
2017-11-07T13:02:12.406Z,3.15
2017-11-07T13:04:41.671Z,2.72
2017-11-07T13:07:14.387Z,1.83
2017-11-07T13:09:44.170Z,2.67
2017-11-07T13:12:20.085Z,2.35
2017-11-07T13:14:50.202Z,2.50
2017-11-07T13:17:19.438Z,2.72
2017-11-07T13:19:50.448Z,1.92
2017-11-07T13:22:21.318Z,2.45
2017-11-07T13:24:50.404Z,2.78
2017-11-07T13:27:20.312Z,3.55
2017-11-07T13:29:49.437Z,3.03
2017-11-07T13:32:18.512Z,4.05
2017-11-07T13:34:49.655Z,3.75
2017-11-07T13:37:20.613Z,5.07
2017-11-07T13:39:49.828Z,3.15
2017-11-07T13:42:18.925Z,2.85
2017-11-07T13:44:50.373Z,3.15
2017-11-07T13:47:19.533Z,3.42
2017-11-07T13:49:49.487Z,3.40
2017-11-07T13:52:21.111Z,3.95
2017-11-07T13:54:50.194Z,2.70
2017-11-07T13:57:19.954Z,3.10
2017-11-07T13:59:49.079Z,2.40
2017-11-07T14:02:18.932Z,3.55
2017-11-07T14:04:48.024Z,3.05
2017-11-07T14:07:17.684Z,3.37
2017-11-07T14:09:46.867Z,3.42
2017-11-07T14:12:15.966Z,3.55
2017-11-07T14:14:46.249Z,4.18
2017-11-07T14:17:15.337Z,4.25
2017-11-07T14:19:45.928Z,3.67
2017-11-07T14:22:15.202Z,4.22
2017-11-07T14:24:44.288Z,3.90
2017-11-07T14:27:13.403Z,4.25
2017-11-07T14:29:42.731Z,5.18
2017-11-07T14:32:12.090Z,4.05
2017-11-07T14:34:41.186Z,3.70
2017-11-07T14:37:10.407Z,3.95
2017-11-07T14:39:39.542Z,4.15
2017-11-07T14:42:08.708Z,4.03
2017-11-07T14:44:38.327Z,3.45
2017-11-07T14:47:07.516Z,4.00
2017-11-07T14:49:36.802Z,3.95
2017-11-07T14:52:07.251Z,3.70
2017-11-07T14:54:36.499Z,7.75
2017-11-07T14:57:06.924Z,4.45
2017-11-07T14:59:36.746Z,5.68
2017-11-07T15:02:06.108Z,8.25
2017-11-07T15:04:35.417Z,10.55
2017-11-07T15:07:05.702Z,6.65
2017-11-07T15:09:34.921Z,5.60
2017-11-07T15:12:04.315Z,5.32
2017-11-07T15:14:33.813Z,5.90
2017-11-07T15:17:03.234Z,6.22
2017-11-07T15:19:34.068Z,5.47
2017-11-07T15:22:03.361Z,6.32
2017-11-07T15:24:32.668Z,6.53
2017-11-07T15:27:02.833Z,5.60
2017-11-07T15:29:33.632Z,6.07
2017-11-07T15:32:02.512Z,6.97
2017-11-07T15:34:31.801Z,7.15
2017-11-07T15:37:02.270Z,7.65
2017-11-07T15:39:31.768Z,4.47
2017-11-07T15:42:01.148Z,4.97
2017-11-07T15:44:31.357Z,6.10
2017-11-07T15:47:00.574Z,4.75
2017-11-07T15:49:31.196Z,5.30
2017-11-07T15:52:01.388Z,4.20
2017-11-07T15:54:30.867Z,5.18
2017-11-07T15:57:00.184Z,5.65
2017-11-07T15:59:30.225Z,5.22
2017-11-07T16:01:59.667Z,4.05
2017-11-07T16:04:29.748Z,6.25
2017-11-07T16:06:59.548Z,5.10
2017-11-07T16:09:29.234Z,5.80
2017-11-07T16:11:58.440Z,5.22
2017-11-07T16:14:29.484Z,5.30
2017-11-07T16:16:58.579Z,4.03
2017-11-07T16:19:28.585Z,5.80
2017-11-07T16:21:58.811Z,4.85
2017-11-07T16:24:27.953Z,6.20
2017-11-07T16:26:57.079Z,4.35
2017-11-07T16:29:27.402Z,5.70
2017-11-07T16:31:56.982Z,5.70
2017-11-07T16:34:27.598Z,6.37
2017-11-07T16:36:58.553Z,5.60
2017-11-07T16:39:27.749Z,7.12
2017-11-07T16:41:56.850Z,6.78
2017-11-07T16:44:27.974Z,5.05
2017-11-07T16:46:57.064Z,6.57
2017-11-07T16:49:26.168Z,6.30
2017-11-07T16:51:55.308Z,7.70
2017-11-07T16:54:24.435Z,7.12
2017-11-07T16:56:53.529Z,8.80
2017-11-07T16:59:23.741Z,8.18
2017-11-07T17:01:52.848Z,8.25
2017-11-07T17:04:22.809Z,6.80
2017-11-07T17:06:53.424Z,7.53
2017-11-07T17:09:22.659Z,11.30
2017-11-07T17:11:53.827Z,10.38
2017-11-07T17:14:23.270Z,10.45
2017-11-07T17:16:59.874Z,9.25
2017-11-07T17:19:31.912Z,9.88
2017-11-07T17:22:01.827Z,11.93
2017-11-07T17:24:31.238Z,9.20
2017-11-07T17:27:01.472Z,10.10
2017-11-07T17:29:31.503Z,10.35
2017-11-07T17:32:01.598Z,8.88
2017-11-07T17:34:31.512Z,8.15
2017-11-07T17:37:01.676Z,7.53
2017-11-07T17:39:31.389Z,8.65
2017-11-07T17:42:00.756Z,9.95
2017-11-07T17:44:33.669Z,7.32
2017-11-07T17:47:05.434Z,8.52
2017-11-07T17:49:35.043Z,8.60
2017-11-07T17:52:04.891Z,11.82
2017-11-07T17:54:35.134Z,9.73
2017-11-07T17:57:04.352Z,10.48
2017-11-07T17:59:33.947Z,10.90
2017-11-07T18:02:06.170Z,8.30
2017-11-07T18:04:35.377Z,9.07
2017-11-07T18:07:04.685Z,9.65
2017-11-07T18:09:34.362Z,7.95
2017-11-07T18:12:04.066Z,8.40
2017-11-07T18:14:33.625Z,8.52
2017-11-07T18:17:03.596Z,8.55
2017-11-07T18:19:33.638Z,9.20
2017-11-07T18:22:03.999Z,8.00
2017-11-07T18:24:33.900Z,8.50
2017-11-07T18:27:03.855Z,9.05
2017-11-07T18:29:33.305Z,8.82
2017-11-07T18:32:03.999Z,8.43
2017-11-07T18:34:33.253Z,9.10
2017-11-07T18:37:03.548Z,9.80
2017-11-07T18:39:34.692Z,8.75
2017-11-07T18:42:04.172Z,8.82
2017-11-07T18:44:33.722Z,8.65
2017-11-07T18:47:07.934Z,8.38
2017-11-07T18:49:38.230Z,7.32
2017-11-07T18:52:17.196Z,6.78
2017-11-07T18:54:49.105Z,6.78
2017-11-07T18:57:18.271Z,6.00
2017-11-07T18:59:48.396Z,6.90
2017-11-07T19:02:17.590Z,7.45
2017-11-07T19:04:48.289Z,7.03
2017-11-07T19:07:17.533Z,9.15
2017-11-07T19:09:46.654Z,7.00
2017-11-07T19:12:20.776Z,8.38
2017-11-07T19:14:49.855Z,8.48
2017-11-07T19:17:19.060Z,7.65
2017-11-07T19:19:49.038Z,8.55
2017-11-07T19:22:18.182Z,8.23
2017-11-07T19:24:47.260Z,8.30
2017-11-07T19:27:22.354Z,7.53
2017-11-07T19:29:57.730Z,8.60
2017-11-07T19:32:30.231Z,8.88
2017-11-07T19:35:02.233Z,8.55
2017-11-07T19:37:32.819Z,8.65
2017-11-07T19:40:02.083Z,7.60
2017-11-07T19:42:38.772Z,8.75
2017-11-07T19:45:09.416Z,7.70
2017-11-07T19:47:39.988Z,8.98
2017-11-07T19:50:10.741Z,7.12
2017-11-07T19:52:43.052Z,7.22
2017-11-07T19:55:13.509Z,7.37
2017-11-07T19:57:43.198Z,6.40
2017-11-07T20:00:12.593Z,6.40
2017-11-07T20:02:41.852Z,6.78
2017-11-07T20:05:11.908Z,6.50
2017-11-07T20:07:41.386Z,5.37
2017-11-07T20:10:12.454Z,5.22
2017-11-07T20:12:43.294Z,5.30
2017-11-07T20:15:13.248Z,5.03
2017-11-07T20:17:54.303Z,6.00
2017-11-07T20:20:31.350Z,4.95
2017-11-07T20:23:04.275Z,4.70
2017-11-07T20:25:38.064Z,5.30
2017-11-07T20:28:09.543Z,4.40
2017-11-07T20:30:39.013Z,5.72
2017-11-07T20:33:14.202Z,6.62
2017-11-07T20:35:44.237Z,5.22
2017-11-07T20:38:16.243Z,6.93
2017-11-07T20:40:48.121Z,4.37
2017-11-07T20:43:17.699Z,5.85
2017-11-07T20:45:46.978Z,4.90
2017-11-07T20:48:16.109Z,5.28
2017-11-07T20:50:47.430Z,5.20
2017-11-07T20:53:16.635Z,4.72
2017-11-07T20:55:46.843Z,6.45
2017-11-07T20:58:16.869Z,4.95
2017-11-07T21:00:50.455Z,5.72
2017-11-07T21:03:22.966Z,5.50
2017-11-07T21:05:52.430Z,4.30
2017-11-07T21:08:24.237Z,5.00
2017-11-07T21:11:00.592Z,5.30
2017-11-07T21:13:41.593Z,8.40
2017-11-07T21:16:17.171Z,4.97
2017-11-07T21:18:47.505Z,6.97
2017-11-07T21:21:16.819Z,5.20
2017-11-07T21:23:46.096Z,5.30
2017-11-07T21:26:15.623Z,4.87
2017-11-07T21:28:45.777Z,4.87
2017-11-07T21:31:14.916Z,4.55
2017-11-07T21:33:45.943Z,4.30
2017-11-07T21:36:16.543Z,4.57
2017-11-07T21:38:47.544Z,4.90
2017-11-07T21:41:16.834Z,4.62
2017-11-07T21:43:46.694Z,5.70
2017-11-07T21:46:19.085Z,4.70
2017-11-07T21:48:48.418Z,4.60
2017-11-07T21:51:18.268Z,4.18
2017-11-07T21:53:48.264Z,6.07
2017-11-07T21:56:18.161Z,6.43
2017-11-07T21:58:47.460Z,4.07
2017-11-07T22:01:16.893Z,4.18
2017-11-07T22:03:47.748Z,4.47
2017-11-07T22:06:19.905Z,4.43
2017-11-07T22:08:49.710Z,4.57
2017-11-07T22:11:20.129Z,3.85
2017-11-07T22:13:50.036Z,3.70
2017-11-07T22:16:19.132Z,4.28
2017-11-07T22:18:48.492Z,4.78
2017-11-07T22:21:18.362Z,3.60
2017-11-07T22:23:47.535Z,4.20
2017-11-07T22:26:17.557Z,4.15
2017-11-07T22:28:49.921Z,4.00
2017-11-07T22:31:20.204Z,4.12
2017-11-07T22:33:49.428Z,3.60
2017-11-07T22:36:20.014Z,3.97
2017-11-07T22:38:49.321Z,4.32
2017-11-07T22:41:19.763Z,4.20
2017-11-07T22:43:49.834Z,3.87
2017-11-07T22:46:18.938Z,4.20
2017-11-07T22:48:49.363Z,3.95
2017-11-07T22:51:18.560Z,3.62
2017-11-07T22:53:47.668Z,4.78
2017-11-07T22:56:17.677Z,4.15
2017-11-07T22:58:46.843Z,5.50
2017-11-07T23:01:16.003Z,4.22
2017-11-07T23:03:49.290Z,4.32
2017-11-07T23:06:18.431Z,4.40
2017-11-07T23:08:47.588Z,5.32
2017-11-07T23:11:16.921Z,4.70
2017-11-07T23:13:47.201Z,4.80
2017-11-07T23:16:18.250Z,4.07
2017-11-07T23:18:48.311Z,22.50
2017-11-07T23:21:17.508Z,3.95
2017-11-07T23:23:47.648Z,4.37
2017-11-07T23:26:17.776Z,3.90
2017-11-07T23:28:47.006Z,4.80
2017-11-07T23:31:16.891Z,4.28
2017-11-07T23:33:51.445Z,3.80
2017-11-07T23:36:21.917Z,4.85
2017-11-07T23:38:51.817Z,4.80
2017-11-07T23:41:20.923Z,4.28
2017-11-07T23:43:51.659Z,4.53
2017-11-07T23:46:20.862Z,4.40
2017-11-07T23:48:53.028Z,4.37
2017-11-07T23:51:28.782Z,3.90
2017-11-07T23:54:04.885Z,3.83
2017-11-07T23:56:35.176Z,4.85
2017-11-07T23:59:05.223Z,4.10
